createdAt,value
2019-05-22T00:00:17.450Z,100640.87
2019-05-22T00:02:47.753Z,100636.77
2019-05-22T00:05:17.722Z,100636.86
2019-05-22T00:07:46.975Z,100641.54
2019-05-22T00:10:20.223Z,100651.68
2019-05-22T00:12:49.559Z,100651.22
2019-05-22T00:15:18.754Z,100647.00
2019-05-22T00:17:49.161Z,100643.45
2019-05-22T00:20:19.790Z,100641.41
2019-05-22T00:22:48.140Z,100635.69
2019-05-22T00:25:23.932Z,100644.77
2019-05-22T00:27:53.781Z,100647.50
2019-05-22T00:30:23.781Z,100646.27
2019-05-22T00:32:52.342Z,100655.14
2019-05-22T00:35:21.753Z,100650.64
2019-05-22T00:37:51.075Z,100652.84
2019-05-22T00:40:20.497Z,100655.38
2019-05-22T00:43:03.429Z,100655.94
2019-05-22T00:45:22.377Z,100658.95
2019-05-22T00:47:52.305Z,100652.52
2019-05-22T00:50:30.698Z,100661.16
2019-05-22T00:53:05.062Z,100662.01
2019-05-22T00:55:41.389Z,100667.06
2019-05-22T00:58:26.619Z,100663.70
2019-05-22T01:01:01.378Z,100666.95
2019-05-22T01:03:31.987Z,100668.05
2019-05-22T01:06:01.403Z,100666.78
2019-05-22T01:08:29.681Z,100668.17
2019-05-22T01:11:00.990Z,100676.14
2019-05-22T01:13:30.660Z,100685.56
2019-05-22T01:15:59.403Z,100688.77
2019-05-22T01:18:28.370Z,100685.86
2019-05-22T01:20:59.118Z,100685.61
2019-05-22T01:23:30.094Z,100690.08
2019-05-22T01:26:00.489Z,100692.22
2019-05-22T01:28:30.129Z,100695.77
2019-05-22T01:31:02.889Z,100699.78
2019-05-22T01:33:32.872Z,100708.14
2019-05-22T01:36:02.795Z,100702.87
2019-05-22T01:38:32.701Z,100709.61
2019-05-22T01:41:05.810Z,100704.22
2019-05-22T01:43:34.941Z,100711.14
2019-05-22T01:46:03.892Z,100704.63
2019-05-22T01:48:37.383Z,100708.77
2019-05-22T01:51:07.108Z,100704.84
2019-05-22T01:53:42.019Z,100708.60
2019-05-22T01:56:12.220Z,100712.31
2019-05-22T01:58:42.814Z,100710.30
2019-05-22T02:01:16.940Z,100708.77
2019-05-22T02:03:47.044Z,100705.36
2019-05-22T02:06:17.853Z,100711.14
2019-05-22T02:08:53.246Z,100709.91
2019-05-22T02:11:23.263Z,100713.83
2019-05-22T02:13:54.997Z,100715.47
2019-05-22T02:16:24.041Z,100713.27
2019-05-22T02:18:52.498Z,100713.23
2019-05-22T02:21:21.640Z,100705.94
2019-05-22T02:23:49.922Z,100716.23
2019-05-22T02:26:19.766Z,100713.95
2019-05-22T02:28:48.800Z,100716.23
2019-05-22T02:31:18.714Z,100715.00
2019-05-22T02:34:03.469Z,100715.72
2019-05-22T02:36:32.785Z,100721.25
2019-05-22T02:39:01.142Z,100725.09
2019-05-22T02:41:42.113Z,100724.00
2019-05-22T02:44:10.676Z,100728.30
2019-05-22T02:46:39.247Z,100724.03
2019-05-22T02:49:09.530Z,100731.28
2019-05-22T02:51:37.933Z,100732.25
2019-05-22T02:54:06.920Z,100732.80
2019-05-22T02:56:36.067Z,100736.02
2019-05-22T02:59:07.555Z,100725.64
2019-05-22T03:01:37.037Z,100729.89
2019-05-22T03:04:05.668Z,100735.97
2019-05-22T03:06:35.657Z,100739.13
2019-05-22T03:09:10.758Z,100736.81
2019-05-22T03:11:42.535Z,100740.52
2019-05-22T03:14:12.492Z,100731.94
2019-05-22T03:16:56.263Z,100727.97
2019-05-22T03:19:40.403Z,100725.48
2019-05-22T03:22:27.571Z,100736.90
2019-05-22T03:24:57.861Z,100735.59
2019-05-22T03:27:43.988Z,100736.98
2019-05-22T03:30:27.711Z,100738.18
2019-05-22T03:32:56.979Z,100738.20
2019-05-22T03:35:26.256Z,100741.26
2019-05-22T03:37:56.221Z,100742.04
2019-05-22T03:40:26.515Z,100750.25
2019-05-22T03:42:55.247Z,100751.25
2019-05-22T03:45:23.607Z,100757.35
2019-05-22T03:47:52.948Z,100762.03
2019-05-22T03:50:22.814Z,100753.34
2019-05-22T03:52:51.814Z,100767.41
2019-05-22T03:55:20.982Z,100770.70
2019-05-22T03:57:49.722Z,100766.97
2019-05-22T04:00:19.598Z,100773.43
2019-05-22T04:02:53.723Z,100779.97
2019-05-22T04:05:23.160Z,100779.48
2019-05-22T04:07:53.677Z,100776.97
2019-05-22T04:10:23.856Z,100791.95
2019-05-22T04:12:53.676Z,100784.95
2019-05-22T04:15:23.328Z,100795.55
2019-05-22T04:17:52.368Z,100791.52
2019-05-22T04:20:20.878Z,100783.05
2019-05-22T04:22:51.069Z,100788.88
2019-05-22T04:25:19.429Z,100790.27
2019-05-22T04:27:47.734Z,100790.10
2019-05-22T04:30:17.935Z,100794.89
2019-05-22T04:32:46.489Z,100806.72
2019-05-22T04:35:17.308Z,100800.50
2019-05-22T04:37:47.283Z,100801.79
2019-05-22T04:40:25.558Z,100809.55
2019-05-22T04:42:54.580Z,100805.96
2019-05-22T04:45:24.773Z,100811.05
2019-05-22T04:47:58.494Z,100811.36
2019-05-22T04:50:29.047Z,100823.33
2019-05-22T04:52:57.794Z,100821.56
2019-05-22T04:55:26.948Z,100820.75
2019-05-22T04:57:55.386Z,100822.56
2019-05-22T05:00:23.906Z,100826.09
2019-05-22T05:02:53.096Z,100828.41
2019-05-22T05:05:24.518Z,100824.87
2019-05-22T05:07:53.778Z,100829.42
2019-05-22T05:10:22.348Z,100836.27
2019-05-22T05:12:50.846Z,100833.67
2019-05-22T05:15:19.108Z,100837.81
2019-05-22T05:17:47.439Z,100839.41
2019-05-22T05:20:22.583Z,100841.26
2019-05-22T05:22:47.473Z,100836.41
2019-05-22T05:25:18.198Z,100849.03
2019-05-22T05:27:47.539Z,100848.18
2019-05-22T05:30:18.241Z,100850.36
2019-05-22T05:32:47.576Z,100850.81
2019-05-22T05:35:17.650Z,100858.80
2019-05-22T05:37:46.515Z,100852.42
2019-05-22T05:40:20.905Z,100861.20
2019-05-22T05:42:49.955Z,100859.36
2019-05-22T05:45:18.335Z,100867.64
2019-05-22T05:47:46.683Z,100871.13
2019-05-22T05:50:14.996Z,100863.75
2019-05-22T05:52:43.979Z,100874.02
2019-05-22T05:55:12.834Z,100862.34
2019-05-22T05:57:53.633Z,100866.51
2019-05-22T06:00:44.497Z,100863.75
2019-05-22T06:03:29.880Z,100868.02
2019-05-22T06:05:58.908Z,100880.63
2019-05-22T06:08:27.199Z,100881.94
2019-05-22T06:11:03.228Z,100889.91
2019-05-22T06:13:31.995Z,100887.37
2019-05-22T06:16:11.113Z,100893.87
2019-05-22T06:18:39.854Z,100893.98
2019-05-22T06:21:08.631Z,100905.36
2019-05-22T06:23:42.209Z,100903.75
2019-05-22T06:26:13.388Z,100903.80
2019-05-22T06:28:42.341Z,100894.72
2019-05-22T06:31:38.027Z,100905.09
2019-05-22T06:34:06.875Z,100910.33
2019-05-22T06:36:36.785Z,100907.05
2019-05-22T06:39:09.051Z,100910.87
2019-05-22T06:41:38.542Z,100913.37
2019-05-22T06:44:35.302Z,100915.48
2019-05-22T06:47:04.911Z,100919.02
2019-05-22T06:49:35.140Z,100917.52
2019-05-22T06:52:04.472Z,100917.44
2019-05-22T06:54:33.019Z,100922.82
2019-05-22T06:57:01.462Z,100928.37
2019-05-22T06:59:29.833Z,100928.22
2019-05-22T07:02:01.706Z,100930.75
2019-05-22T07:04:29.774Z,100929.44
2019-05-22T07:06:58.566Z,100938.33
2019-05-22T07:09:28.086Z,100937.56
2019-05-22T07:11:58.007Z,100940.75
2019-05-22T07:14:27.123Z,100939.87
2019-05-22T07:16:55.992Z,100943.98
2019-05-22T07:19:24.765Z,100944.91
2019-05-22T07:21:53.242Z,100946.17
2019-05-22T07:24:22.688Z,100952.09
2019-05-22T07:26:52.444Z,100953.09
2019-05-22T07:29:20.985Z,100959.56
2019-05-22T07:31:49.352Z,100961.79
2019-05-22T07:34:18.581Z,100959.79
2019-05-22T07:36:46.886Z,100962.48
2019-05-22T07:39:15.230Z,100967.25
2019-05-22T07:41:43.520Z,100962.37
2019-05-22T07:44:11.817Z,100974.07
2019-05-22T07:46:40.546Z,100976.76
2019-05-22T07:49:09.010Z,100978.86
2019-05-22T07:51:50.534Z,100973.02
2019-05-22T07:54:07.379Z,100985.94
2019-05-22T07:56:36.469Z,100983.87
2019-05-22T07:59:05.303Z,100991.86
2019-05-22T08:01:33.629Z,101001.25
2019-05-22T08:04:02.889Z,100996.25
2019-05-22T08:06:31.356Z,101002.33
2019-05-22T08:08:59.925Z,101010.00
2019-05-22T08:11:28.383Z,100999.84
2019-05-22T08:13:57.732Z,101007.16
2019-05-22T08:16:26.582Z,101004.78
2019-05-22T08:18:54.897Z,101003.37
2019-05-22T08:21:23.872Z,101009.09
2019-05-22T08:23:53.878Z,101005.92
2019-05-22T08:26:23.805Z,101011.01
2019-05-22T08:28:52.166Z,101012.48
2019-05-22T08:31:22.093Z,101009.16
2019-05-22T08:33:50.442Z,101017.78
2019-05-22T08:36:18.733Z,101015.25
2019-05-22T08:38:47.031Z,101027.71
2019-05-22T08:41:16.649Z,101036.85
2019-05-22T08:44:15.219Z,101040.77
2019-05-22T08:46:17.140Z,101046.32
2019-05-22T08:48:48.708Z,101045.61
2019-05-22T08:51:15.848Z,101055.95
2019-05-22T08:53:48.167Z,101050.68
2019-05-22T08:56:14.615Z,101055.38
2019-05-22T08:58:44.955Z,101055.77
2019-05-22T09:01:14.263Z,101065.23
2019-05-22T09:03:42.646Z,101066.30
2019-05-22T09:06:11.323Z,101067.70
2019-05-22T09:08:40.267Z,101065.31
2019-05-22T09:11:09.111Z,101071.01
2019-05-22T09:13:38.358Z,101068.67
2019-05-22T09:16:08.948Z,101076.41
2019-05-22T09:18:37.320Z,101080.06
2019-05-22T09:21:05.982Z,101085.69
2019-05-22T09:23:35.985Z,101092.38
2019-05-22T09:26:05.676Z,101093.77
2019-05-22T09:28:34.003Z,101094.30
2019-05-22T09:31:02.303Z,101103.23
2019-05-22T09:33:31.247Z,101094.24
2019-05-22T09:35:59.604Z,101095.31
2019-05-22T09:38:28.166Z,101092.02
2019-05-22T09:40:56.529Z,101097.48
2019-05-22T09:43:24.896Z,101100.38
2019-05-22T09:45:53.822Z,101104.31
2019-05-22T09:48:22.267Z,101105.93
2019-05-22T09:50:50.534Z,101106.92
2019-05-22T09:53:19.649Z,101110.78
2019-05-22T09:55:48.202Z,101112.80
2019-05-22T09:58:16.671Z,101123.26
2019-05-22T10:00:45.130Z,101122.80
2019-05-22T10:03:13.538Z,101120.70
2019-05-22T10:05:42.345Z,101120.33
2019-05-22T10:08:10.740Z,101123.81
2019-05-22T10:10:39.585Z,101123.02
2019-05-22T10:13:08.054Z,101126.56
2019-05-22T10:15:36.352Z,101121.87
2019-05-22T10:18:06.034Z,101124.48
2019-05-22T10:20:34.653Z,101134.66
2019-05-22T10:23:14.798Z,101132.11
2019-05-22T10:25:35.040Z,101132.47
2019-05-22T10:28:04.468Z,101137.25
2019-05-22T10:30:32.886Z,101140.02
2019-05-22T10:33:01.144Z,101146.95
2019-05-22T10:35:31.090Z,101150.12
2019-05-22T10:37:59.538Z,101157.52
2019-05-22T10:40:28.173Z,101149.75
2019-05-22T10:42:57.236Z,101157.37
2019-05-22T10:45:27.154Z,101159.83
2019-05-22T10:47:55.435Z,101159.28
2019-05-22T10:50:24.990Z,101159.66
2019-05-22T10:52:54.910Z,101161.66
2019-05-22T10:55:24.123Z,101164.35
2019-05-22T10:57:52.569Z,101159.51
2019-05-22T11:00:21.901Z,101164.44
2019-05-22T11:02:50.216Z,101159.70
2019-05-22T11:05:20.105Z,101159.47
2019-05-22T11:07:49.025Z,101168.07
2019-05-22T11:10:19.991Z,101164.17
2019-05-22T11:12:48.511Z,101169.80
2019-05-22T11:15:17.428Z,101162.17
2019-05-22T11:17:45.705Z,101171.75
2019-05-22T11:20:14.378Z,101165.17
2019-05-22T11:22:42.643Z,101171.17
2019-05-22T11:25:12.662Z,101172.56
2019-05-22T11:27:41.297Z,101179.89
2019-05-22T11:30:14.096Z,101181.23
2019-05-22T11:32:42.620Z,101187.79
2019-05-22T11:35:11.411Z,101194.75
2019-05-22T11:37:39.963Z,101193.27
2019-05-22T11:40:08.566Z,101197.22
2019-05-22T11:42:38.126Z,101202.27
2019-05-22T11:45:08.489Z,101202.77
2019-05-22T11:47:36.805Z,101209.83
2019-05-22T11:50:09.680Z,101213.63
2019-05-22T11:52:38.040Z,101212.91
2019-05-22T11:55:06.640Z,101204.38
2019-05-22T11:57:35.384Z,101209.31
2019-05-22T12:00:09.351Z,101220.96
2019-05-22T12:02:39.468Z,101223.02
2019-05-22T12:05:10.403Z,101230.83
2019-05-22T12:07:43.459Z,101227.73
2019-05-22T12:10:12.550Z,101228.14
2019-05-22T12:12:41.392Z,101236.55
2019-05-22T12:15:10.402Z,101230.44
2019-05-22T12:17:39.239Z,101235.20
2019-05-22T12:20:09.846Z,101238.70
2019-05-22T12:22:38.495Z,101240.25
2019-05-22T12:25:09.381Z,101244.34
2019-05-22T12:27:37.681Z,101245.11
2019-05-22T12:30:08.979Z,101246.80
2019-05-22T12:32:38.042Z,101247.50
2019-05-22T12:35:07.207Z,101254.66
2019-05-22T12:37:35.680Z,101249.27
2019-05-22T12:40:07.919Z,101247.19
2019-05-22T12:42:36.377Z,101245.38
2019-05-22T12:45:09.604Z,101243.34
2019-05-22T12:47:38.301Z,101249.00
2019-05-22T12:50:08.114Z,101249.88
2019-05-22T12:52:36.591Z,101252.36
2019-05-22T12:55:06.198Z,101250.27
2019-05-22T12:57:34.578Z,101253.34
2019-05-22T13:00:04.722Z,101254.13
2019-05-22T13:02:34.773Z,101248.51
2019-05-22T13:05:03.080Z,101252.58
2019-05-22T13:07:31.628Z,101257.84
2019-05-22T13:09:59.917Z,101251.64
2019-05-22T13:12:28.466Z,101253.95
2019-05-22T13:15:08.836Z,101260.70
2019-05-22T13:17:27.808Z,101263.77
2019-05-22T13:19:56.797Z,101264.33
2019-05-22T13:22:26.401Z,101266.92
2019-05-22T13:24:55.207Z,101263.53
2019-05-22T13:27:23.579Z,101262.98
2019-05-22T13:29:52.449Z,101263.23
2019-05-22T13:32:21.567Z,101265.28
2019-05-22T13:34:51.089Z,101266.77
2019-05-22T13:37:19.430Z,101275.23
2019-05-22T13:39:47.719Z,101273.80
2019-05-22T13:42:15.993Z,101276.27
2019-05-22T13:44:44.372Z,101279.41
2019-05-22T13:47:13.125Z,101284.83
2019-05-22T13:49:42.615Z,101286.68
2019-05-22T13:52:11.845Z,101279.83
2019-05-22T13:54:40.301Z,101288.12
2019-05-22T13:57:09.135Z,101294.32
2019-05-22T13:59:37.805Z,101305.00
2019-05-22T14:02:06.167Z,101296.52
2019-05-22T14:04:34.644Z,101297.06
2019-05-22T14:07:03.295Z,101301.84
2019-05-22T14:09:32.426Z,101297.98
2019-05-22T14:12:00.794Z,101300.14
2019-05-22T14:14:29.234Z,101305.13
2019-05-22T14:16:57.509Z,101306.23
2019-05-22T14:19:25.809Z,101304.27
2019-05-22T14:21:54.192Z,101309.36
2019-05-22T14:24:22.499Z,101311.59
2019-05-22T14:26:50.912Z,101311.75
2019-05-22T14:29:19.264Z,101310.60
2019-05-22T14:31:47.551Z,101315.64
2019-05-22T14:34:16.018Z,101306.81
2019-05-22T14:36:44.762Z,101307.50
2019-05-22T14:39:13.976Z,101314.46
2019-05-22T14:41:42.359Z,101317.11
2019-05-22T14:44:10.881Z,101312.63
2019-05-22T14:46:39.240Z,101309.55
2019-05-22T14:49:07.534Z,101308.19
2019-05-22T14:51:35.808Z,101312.86
2019-05-22T14:54:04.977Z,101313.30
2019-05-22T14:56:33.605Z,101315.90
2019-05-22T14:59:02.127Z,101315.61
2019-05-22T15:01:30.474Z,101319.17
2019-05-22T15:03:58.752Z,101318.02
2019-05-22T15:06:27.408Z,101311.61
2019-05-22T15:08:55.669Z,101307.87
2019-05-22T15:11:23.937Z,101319.95
2019-05-22T15:13:52.499Z,101323.45
2019-05-22T15:16:21.357Z,101314.23
2019-05-22T15:18:49.638Z,101314.30
2019-05-22T15:21:18.311Z,101313.05
2019-05-22T15:23:47.695Z,101311.94
2019-05-22T15:26:16.108Z,101306.93
2019-05-22T15:28:44.492Z,101314.17
2019-05-22T15:31:12.808Z,101308.91
2019-05-22T15:33:42.272Z,101305.77
2019-05-22T15:36:12.662Z,101309.54
2019-05-22T15:38:42.239Z,101310.58
2019-05-22T15:41:10.834Z,101306.53
2019-05-22T15:43:40.944Z,101304.86
2019-05-22T15:46:10.165Z,101302.99
2019-05-22T15:48:39.638Z,101314.91
2019-05-22T15:51:09.927Z,101311.48
2019-05-22T15:53:39.553Z,101307.26
2019-05-22T15:56:09.316Z,101306.03
2019-05-22T15:58:41.193Z,101314.20
2019-05-22T16:01:10.926Z,101305.62
2019-05-22T16:03:41.036Z,101314.80
2019-05-22T16:06:10.505Z,101314.14
2019-05-22T16:08:38.950Z,101308.83
2019-05-22T16:11:09.161Z,101314.45
2019-05-22T16:13:39.128Z,101310.61
2019-05-22T16:16:09.585Z,101312.09
2019-05-22T16:18:38.249Z,101305.42
2019-05-22T16:21:09.018Z,101314.61
2019-05-22T16:23:38.306Z,101309.89
2019-05-22T16:26:07.986Z,101316.08
2019-05-22T16:28:38.570Z,101324.64
2019-05-22T16:31:10.336Z,101311.34
2019-05-22T16:33:41.539Z,101324.46
2019-05-22T16:36:10.203Z,101323.03
2019-05-22T16:38:39.034Z,101318.76
2019-05-22T16:41:07.693Z,101323.34
2019-05-22T16:43:48.868Z,101324.27
2019-05-22T16:46:07.788Z,101330.97
2019-05-22T16:48:37.065Z,101335.37
2019-05-22T16:51:06.713Z,101334.36
2019-05-22T16:53:35.331Z,101334.65
2019-05-22T16:56:03.701Z,101331.05
2019-05-22T16:58:32.427Z,101339.91
2019-05-22T17:01:00.712Z,101339.40
2019-05-22T17:03:29.195Z,101341.73
2019-05-22T17:05:57.758Z,101329.02
2019-05-22T17:08:28.132Z,101329.02
2019-05-22T17:10:59.422Z,101338.89
2019-05-22T17:13:30.069Z,101337.49
2019-05-22T17:15:58.683Z,101341.02
2019-05-22T17:18:45.569Z,101345.72
2019-05-22T17:20:58.889Z,101351.92
2019-05-22T17:23:27.849Z,101354.77
2019-05-22T17:25:58.023Z,101346.19
2019-05-22T17:28:27.084Z,101355.52
2019-05-22T17:30:56.253Z,101348.93
2019-05-22T17:33:24.552Z,101353.39
2019-05-22T17:35:53.272Z,101350.24
2019-05-22T17:38:23.014Z,101347.61
2019-05-22T17:40:52.043Z,101349.42
2019-05-22T17:43:21.264Z,101353.77
2019-05-22T17:45:49.785Z,101351.45
2019-05-22T17:48:18.932Z,101354.01
2019-05-22T17:50:47.366Z,101363.17
2019-05-22T17:53:17.719Z,101357.31
2019-05-22T17:55:47.005Z,101354.39
2019-05-22T17:58:15.548Z,101359.09
2019-05-22T18:00:51.361Z,101359.40
2019-05-22T18:03:19.926Z,101356.91
2019-05-22T18:05:48.682Z,101355.55
2019-05-22T18:08:17.830Z,101355.84
2019-05-22T18:10:48.561Z,101369.96
2019-05-22T18:13:17.092Z,101357.87
2019-05-22T18:15:46.430Z,101365.05
2019-05-22T18:18:15.049Z,101368.33
2019-05-22T18:20:44.322Z,101373.81
2019-05-22T18:23:12.665Z,101372.23
2019-05-22T18:25:41.290Z,101375.70
2019-05-22T18:28:10.639Z,101381.41
2019-05-22T18:30:40.619Z,101385.83
2019-05-22T18:33:09.763Z,101387.44
2019-05-22T18:35:38.333Z,101384.73
2019-05-22T18:38:06.743Z,101384.35
2019-05-22T18:40:35.204Z,101381.73
2019-05-22T18:43:03.475Z,101379.73
2019-05-22T18:45:35.012Z,101387.20
2019-05-22T18:48:04.354Z,101389.34
2019-05-22T18:50:32.815Z,101395.55
2019-05-22T18:53:01.133Z,101385.29
2019-05-22T18:55:30.521Z,101390.22
2019-05-22T18:57:58.967Z,101393.75
2019-05-22T19:00:28.894Z,101395.62
2019-05-22T19:02:57.539Z,101398.88
2019-05-22T19:05:28.022Z,101403.80
2019-05-22T19:07:56.312Z,101401.81
2019-05-22T19:10:24.667Z,101399.94
2019-05-22T19:12:53.018Z,101399.98
2019-05-22T19:15:22.671Z,101400.22
2019-05-22T19:17:51.094Z,101413.98
2019-05-22T19:20:19.365Z,101411.97
2019-05-22T19:22:59.156Z,101412.41
2019-05-22T19:25:18.241Z,101422.70
2019-05-22T19:27:46.601Z,101418.91
2019-05-22T19:30:19.053Z,101418.91
2019-05-22T19:32:47.957Z,101416.55
2019-05-22T19:35:16.235Z,101417.99
2019-05-22T19:37:45.879Z,101413.22
2019-05-22T19:40:16.996Z,101420.72
2019-05-22T19:42:45.302Z,101415.36
2019-05-22T19:45:14.293Z,101419.55
2019-05-22T19:47:49.817Z,101425.50
2019-05-22T19:50:23.080Z,101424.22
2019-05-22T19:52:51.855Z,101418.08
2019-05-22T19:55:21.487Z,101417.94
2019-05-22T19:57:51.184Z,101419.84
2019-05-22T20:00:19.589Z,101428.02
2019-05-22T20:02:50.690Z,101423.44
2019-05-22T20:05:18.594Z,101429.34
2019-05-22T20:07:47.321Z,101429.48
2019-05-22T20:10:15.591Z,101419.92
2019-05-22T20:12:43.901Z,101424.56
2019-05-22T20:15:12.325Z,101429.41
2019-05-22T20:17:40.927Z,101431.51
2019-05-22T20:20:11.227Z,101426.13
2019-05-22T20:22:40.035Z,101431.42
2019-05-22T20:25:08.756Z,101428.09
2019-05-22T20:27:37.114Z,101426.78
2019-05-22T20:30:07.132Z,101424.23
2019-05-22T20:32:36.053Z,101425.20
2019-05-22T20:35:05.850Z,101424.96
2019-05-22T20:37:34.611Z,101420.43
2019-05-22T20:40:03.234Z,101419.64
2019-05-22T20:42:32.959Z,101422.05
2019-05-22T20:45:01.884Z,101419.28
2019-05-22T20:47:31.845Z,101421.16
2019-05-22T20:50:01.514Z,101425.71
2019-05-22T20:52:30.663Z,101429.02
2019-05-22T20:54:59.429Z,101420.56
2019-05-22T20:57:28.209Z,101429.75
2019-05-22T20:59:56.636Z,101429.39
2019-05-22T21:02:26.616Z,101419.30
2019-05-22T21:04:57.507Z,101422.70
2019-05-22T21:07:34.770Z,101424.00
2019-05-22T21:10:03.882Z,101428.02
2019-05-22T21:12:35.747Z,101426.31
2019-05-22T21:15:03.482Z,101427.38
2019-05-22T21:17:31.749Z,101429.77
2019-05-22T21:20:00.683Z,101432.89
2019-05-22T21:22:32.015Z,101440.48
2019-05-22T21:25:00.246Z,101433.12
2019-05-22T21:27:28.997Z,101431.13
2019-05-22T21:29:57.563Z,101435.95
2019-05-22T21:32:25.920Z,101432.94
2019-05-22T21:34:55.176Z,101428.58
2019-05-22T21:37:24.402Z,101435.44
2019-05-22T21:39:52.850Z,101431.58
2019-05-22T21:42:21.486Z,101430.92
2019-05-22T21:44:50.036Z,101431.37
2019-05-22T21:47:18.600Z,101434.94
2019-05-22T21:49:47.028Z,101433.63
2019-05-22T21:52:15.669Z,101438.56
2019-05-22T21:54:44.390Z,101439.81
2019-05-22T21:57:13.449Z,101438.22
2019-05-22T21:59:41.795Z,101434.02
2019-05-22T22:02:21.031Z,101433.62
2019-05-22T22:04:49.535Z,101435.72
2019-05-22T22:07:18.411Z,101436.03
2019-05-22T22:09:47.073Z,101432.86
2019-05-22T22:12:19.480Z,101436.13
2019-05-22T22:14:49.619Z,101429.16
2019-05-22T22:17:19.568Z,101428.80
2019-05-22T22:19:49.170Z,101436.73
2019-05-22T22:22:23.736Z,101430.80
2019-05-22T22:24:52.288Z,101425.23
2019-05-22T22:27:20.646Z,101425.23
2019-05-22T22:29:49.561Z,101427.48
2019-05-22T22:32:19.574Z,101430.69
2019-05-22T22:34:48.587Z,101430.81
2019-05-22T22:37:17.427Z,101441.05
2019-05-22T22:39:47.494Z,101438.09
2019-05-22T22:42:17.082Z,101439.59
2019-05-22T22:44:48.050Z,101443.19
2019-05-22T22:47:18.458Z,101444.95
2019-05-22T22:49:48.064Z,101445.97
2019-05-22T22:52:17.328Z,101448.31
2019-05-22T22:54:46.091Z,101451.87
2019-05-22T22:57:14.740Z,101445.95
2019-05-22T22:59:43.254Z,101447.37
2019-05-22T23:02:14.252Z,101450.02
2019-05-22T23:04:43.407Z,101449.53
2019-05-22T23:07:11.768Z,101446.61
2019-05-22T23:09:42.503Z,101455.19
2019-05-22T23:12:12.458Z,101449.53
2019-05-22T23:14:45.381Z,101453.27
2019-05-22T23:17:13.735Z,101446.66
2019-05-22T23:19:42.680Z,101448.91
2019-05-22T23:22:19.482Z,101450.16
2019-05-22T23:24:49.431Z,101454.37
2019-05-22T23:27:19.252Z,101453.94
2019-05-22T23:29:48.195Z,101444.23
2019-05-22T23:32:18.377Z,101451.55
2019-05-22T23:34:47.265Z,101449.71
2019-05-22T23:37:17.462Z,101449.17
2019-05-22T23:39:46.178Z,101443.20
2019-05-22T23:42:17.442Z,101446.30
2019-05-22T23:44:46.194Z,101447.83
2019-05-22T23:47:15.461Z,101446.44
2019-05-22T23:49:43.828Z,101447.47
2019-05-22T23:52:13.832Z,101448.89
2019-05-22T23:54:43.770Z,101446.79
2019-05-22T23:57:13.843Z,101448.53
2019-05-22T23:59:42.432Z,101448.67
